San Luis, Argentina
Current Conditions -  °F | °C
As of 5:00 PM on Friday 21 Nov 2014 (Local Time) from SAOC Reporting Station
Scattered Clouds Scattered Clouds  
Wind Chill: 20°   Ceiling: Unl
Heat Index: 20°   Visibility: 6mi
Dew Point: 10°   Wind: 10mph
Humidity: 52%   Direction: 180°S
Pressure: 29.91"   Gusts: NA
Location:  33.3°S, 66.35°W
Report Text: SAOC 212000Z 18009KT 9999 SCT015 SCT02020/10 Q1013
Loading
Personal Weather Stations






























Interactive Weather Map New forecast layout! Learn more

10-Day Weather Forecast

Advertisements
Track Severe Weather on mobile